createdAt,value
2016-01-31T00:00:25.729Z,0
2016-01-31T00:01:26.160Z,0
2016-01-31T00:02:22.678Z,0
2016-01-31T00:03:24.634Z,0
2016-01-31T00:04:22.465Z,0
2016-01-31T00:05:22.515Z,0
2016-01-31T00:06:22.471Z,0
2016-01-31T00:07:22.489Z,0
2016-01-31T00:08:22.445Z,0
2016-01-31T00:09:22.496Z,0
2016-01-31T00:10:22.467Z,0
2016-01-31T00:11:22.440Z,0
2016-01-31T00:12:22.442Z,0
2016-01-31T00:13:22.444Z,0
2016-01-31T00:14:22.436Z,0
2016-01-31T00:15:22.456Z,0
2016-01-31T00:16:22.428Z,0
2016-01-31T00:17:22.446Z,0
2016-01-31T00:18:22.449Z,0
2016-01-31T00:19:22.452Z,0
2016-01-31T00:20:22.442Z,0
2016-01-31T00:21:22.413Z,0
2016-01-31T00:22:22.400Z,0
2016-01-31T00:23:22.434Z,0
2016-01-31T00:24:22.438Z,0
2016-01-31T00:25:22.424Z,0
2016-01-31T00:26:22.396Z,0
2016-01-31T00:27:22.399Z,0
2016-01-31T00:28:22.385Z,0
2016-01-31T00:29:22.387Z,0
2016-01-31T00:30:22.391Z,0
2016-01-31T00:31:22.394Z,0
2016-01-31T00:32:22.397Z,0
2016-01-31T00:33:22.384Z,0
2016-01-31T00:34:22.417Z,0
2016-01-31T00:35:22.405Z,0
2016-01-31T00:36:22.393Z,0
2016-01-31T00:37:22.348Z,0
2016-01-31T00:38:22.351Z,0
2016-01-31T00:39:22.354Z,0
2016-01-31T00:40:22.376Z,0
2016-01-31T00:41:22.347Z,0
2016-01-31T00:42:22.335Z,0
2016-01-31T00:43:22.352Z,0
2016-01-31T00:44:22.326Z,0
2016-01-31T00:45:22.321Z,0
2016-01-31T00:46:22.324Z,0
2016-01-31T00:47:22.327Z,0
2016-01-31T00:48:22.318Z,0
2016-01-31T00:49:22.306Z,0
2016-01-31T00:50:22.311Z,0
2016-01-31T00:51:22.280Z,0
2016-01-31T00:52:22.302Z,0
2016-01-31T00:53:22.286Z,0
2016-01-31T00:54:22.307Z,0
2016-01-31T00:55:22.292Z,0
2016-01-31T00:56:22.295Z,0
2016-01-31T00:57:22.267Z,0
2016-01-31T00:58:22.285Z,0
2016-01-31T00:59:22.246Z,0
2016-01-31T01:00:22.248Z,0
2016-01-31T01:01:22.282Z,0
2016-01-31T01:02:22.239Z,0
2016-01-31T01:03:22.257Z,0
2016-01-31T01:04:22.237Z,0
2016-01-31T01:05:22.240Z,0
2016-01-31T01:06:22.229Z,0
2016-01-31T01:07:22.231Z,0
2016-01-31T01:08:22.203Z,0
2016-01-31T01:09:22.195Z,0
2016-01-31T01:10:22.216Z,0
2016-01-31T01:11:22.218Z,0
2016-01-31T01:12:22.206Z,0
2016-01-31T01:13:22.208Z,0
2016-01-31T01:14:22.195Z,0
2016-01-31T01:15:22.167Z,0
2016-01-31T01:16:22.185Z,0
2016-01-31T01:17:22.187Z,0
2016-01-31T01:18:22.159Z,0
2016-01-31T01:19:22.163Z,0
2016-01-31T01:20:22.166Z,0
2016-01-31T01:21:22.137Z,0
2016-01-31T01:22:22.139Z,0
2016-01-31T01:23:22.143Z,0
2016-01-31T01:24:22.130Z,0
2016-01-31T01:25:22.118Z,0
2016-01-31T01:26:22.121Z,0
2016-01-31T01:27:22.110Z,0
2016-01-31T01:28:22.113Z,0
2016-01-31T01:29:22.098Z,0
2016-01-31T01:30:22.118Z,0
2016-01-31T01:31:22.229Z,0
2016-01-31T01:32:22.108Z,0
2016-01-31T01:33:22.095Z,0
2016-01-31T01:34:22.084Z,0
2016-01-31T01:35:22.071Z,0
2016-01-31T01:36:22.058Z,0
2016-01-31T01:37:22.045Z,0
2016-01-31T01:38:22.049Z,0
2016-01-31T01:39:22.052Z,0
2016-01-31T01:40:22.054Z,0
2016-01-31T01:41:22.057Z,0
2016-01-31T01:42:22.060Z,0
2016-01-31T01:43:22.032Z,0
2016-01-31T01:44:22.019Z,0
2016-01-31T01:45:22.037Z,0
2016-01-31T01:46:22.029Z,0
2016-01-31T01:47:22.016Z,0
2016-01-31T01:48:22.019Z,0
2016-01-31T01:49:21.991Z,0
2016-01-31T01:50:22.009Z,0
2016-01-31T01:51:21.996Z,0
2016-01-31T01:52:21.999Z,0
2016-01-31T01:53:21.971Z,0
2016-01-31T01:54:21.973Z,0
2016-01-31T01:55:21.976Z,0
2016-01-31T01:56:22.010Z,0
2016-01-31T01:57:21.950Z,0
2016-01-31T01:58:21.956Z,0
2016-01-31T01:59:21.942Z,0
2016-01-31T02:00:21.945Z,0
2016-01-31T02:01:21.932Z,0
2016-01-31T02:02:21.952Z,0
2016-01-31T02:03:21.924Z,0
2016-01-31T02:04:21.770Z,0
2016-01-31T02:05:21.914Z,0
2016-01-31T02:06:21.932Z,0
2016-01-31T02:07:21.920Z,0
2016-01-31T02:08:21.923Z,0
2016-01-31T02:09:21.895Z,0
2016-01-31T02:10:21.897Z,0
2016-01-31T02:11:21.900Z,0
2016-01-31T02:12:21.887Z,0
2016-01-31T02:13:21.890Z,0
2016-01-31T02:14:21.875Z,0
2016-01-31T02:15:21.861Z,0
2016-01-31T02:16:21.864Z,0
2016-01-31T02:17:21.858Z,0
2016-01-31T02:18:21.877Z,0
2016-01-31T02:19:21.848Z,0
2016-01-31T02:20:21.866Z,0
2016-01-31T02:21:21.838Z,0
2016-01-31T02:22:21.842Z,0
2016-01-31T02:23:21.828Z,0
2016-01-31T02:24:21.831Z,0
2016-01-31T02:25:21.819Z,0
2016-01-31T02:26:21.809Z,0
2016-01-31T02:27:21.829Z,0
2016-01-31T02:28:21.816Z,0
2016-01-31T02:29:21.818Z,0
2016-01-31T02:30:21.790Z,0
2016-01-31T02:31:21.793Z,0
2016-01-31T02:32:21.796Z,0
2016-01-31T02:33:21.782Z,0
2016-01-31T02:34:21.770Z,0
2016-01-31T02:35:21.788Z,0
2016-01-31T02:36:21.775Z,0
2016-01-31T02:37:21.762Z,0
2016-01-31T02:38:21.750Z,0
2016-01-31T02:39:21.752Z,0
2016-01-31T02:40:21.739Z,0
2016-01-31T02:41:21.726Z,0
2016-01-31T02:42:21.745Z,0
2016-01-31T02:43:21.732Z,0
2016-01-31T02:44:21.735Z,0
2016-01-31T02:45:21.722Z,0
2016-01-31T02:46:21.726Z,0
2016-01-31T02:47:21.714Z,0
2016-01-31T02:48:21.716Z,0
2016-01-31T02:49:21.753Z,0
2016-01-31T02:50:21.693Z,0
2016-01-31T02:51:21.681Z,0
2016-01-31T02:52:21.698Z,0
2016-01-31T02:53:21.701Z,0
2016-01-31T02:54:21.674Z,0
2016-01-31T02:55:21.708Z,0
2016-01-31T02:56:21.696Z,0
2016-01-31T02:57:21.651Z,0
2016-01-31T02:58:21.654Z,0
2016-01-31T02:59:21.642Z,0
2016-01-31T03:00:21.645Z,0
2016-01-31T03:01:21.650Z,0
2016-01-31T03:02:21.622Z,0
2016-01-31T03:03:21.609Z,0
2016-01-31T03:04:21.642Z,0
2016-01-31T03:05:21.615Z,0
2016-01-31T03:06:21.602Z,0
2016-01-31T03:07:21.604Z,0
2016-01-31T03:08:21.623Z,0
2016-01-31T03:09:21.595Z,0
2016-01-31T03:10:21.600Z,0
2016-01-31T03:11:21.634Z,0
2016-01-31T03:12:21.590Z,0
2016-01-31T03:13:21.593Z,0
2016-01-31T03:14:21.570Z,0
2016-01-31T03:15:21.542Z,0
2016-01-31T03:16:21.560Z,0
2016-01-31T03:17:21.548Z,0
2016-01-31T03:18:21.565Z,0
2016-01-31T03:19:21.537Z,0
2016-01-31T03:20:21.529Z,0
2016-01-31T03:21:21.515Z,0
2016-01-31T03:22:21.503Z,0
2016-01-31T03:23:21.505Z,0
2016-01-31T03:24:21.555Z,0
2016-01-31T03:25:21.495Z,0
2016-01-31T03:26:21.467Z,0
2016-01-31T03:27:21.485Z,0
2016-01-31T03:28:21.503Z,0
2016-01-31T03:29:21.460Z,0
2016-01-31T03:30:21.462Z,0
2016-01-31T03:31:21.466Z,0
2016-01-31T03:32:21.484Z,0
2016-01-31T03:33:21.440Z,0
2016-01-31T03:34:21.444Z,0
2016-01-31T03:35:21.447Z,0
2016-01-31T03:36:21.418Z,0
2016-01-31T03:37:21.404Z,0
2016-01-31T03:38:21.425Z,0
2016-01-31T03:39:21.443Z,0
2016-01-31T03:40:21.400Z,0
2016-01-31T03:41:21.387Z,0
2016-01-31T03:42:21.406Z,0
2016-01-31T03:43:21.408Z,0
2016-01-31T03:44:21.380Z,0
2016-01-31T03:45:21.370Z,0
2016-01-31T03:46:21.357Z,0
2016-01-31T03:47:21.376Z,0
2016-01-31T03:48:21.363Z,0
2016-01-31T03:49:21.336Z,0
2016-01-31T03:50:21.359Z,0
2016-01-31T03:51:21.362Z,0
2016-01-31T03:52:21.397Z,0
2016-01-31T03:53:21.321Z,0
2016-01-31T03:54:21.324Z,0
2016-01-31T03:55:21.530Z,0
2016-01-31T03:56:21.360Z,0
2016-01-31T03:57:21.301Z,0
2016-01-31T03:58:21.304Z,0
2016-01-31T03:59:21.324Z,0
2016-01-31T04:00:21.294Z,0
2016-01-31T04:01:21.296Z,0
2016-01-31T04:02:21.300Z,0
2016-01-31T04:03:21.271Z,0
2016-01-31T04:04:21.275Z,0
2016-01-31T04:05:21.294Z,0
2016-01-31T04:06:21.250Z,0
2016-01-31T04:07:21.236Z,0
2016-01-31T04:08:21.269Z,0
2016-01-31T04:09:21.242Z,0
2016-01-31T04:10:21.073Z,0
2016-01-31T04:11:21.232Z,0
2016-01-31T04:12:21.251Z,0
2016-01-31T04:13:21.209Z,0
2016-01-31T04:14:21.196Z,0
2016-01-31T04:15:21.200Z,0
2016-01-31T04:16:21.030Z,0
2016-01-31T04:17:21.192Z,0
2016-01-31T04:18:21.226Z,0
2016-01-31T04:19:21.167Z,0
2016-01-31T04:20:21.191Z,0
2016-01-31T04:21:21.178Z,0
2016-01-31T04:22:21.181Z,0
2016-01-31T04:23:21.152Z,0
2016-01-31T04:24:20.986Z,0
2016-01-31T04:25:21.146Z,0
2016-01-31T04:26:21.149Z,0
2016-01-31T04:27:21.136Z,0
2016-01-31T04:28:21.124Z,0
2016-01-31T04:29:21.127Z,0
2016-01-31T04:30:21.114Z,0
2016-01-31T04:31:21.101Z,0
2016-01-31T04:32:21.104Z,0
2016-01-31T04:33:21.125Z,0
2016-01-31T04:34:21.081Z,0
2016-01-31T04:35:21.083Z,0
2016-01-31T04:36:21.086Z,0
2016-01-31T04:37:21.090Z,0
2016-01-31T04:38:21.060Z,0
2016-01-31T04:39:21.063Z,0
2016-01-31T04:40:21.065Z,0
2016-01-31T04:41:21.070Z,0
2016-01-31T04:42:21.041Z,0
2016-01-31T04:43:21.028Z,0
2016-01-31T04:44:21.035Z,0
2016-01-31T04:45:21.022Z,0
2016-01-31T04:46:21.025Z,0
2016-01-31T04:47:21.011Z,0
2016-01-31T04:48:21.015Z,0
2016-01-31T04:49:21.017Z,0
2016-01-31T04:50:21.021Z,0
2016-01-31T04:51:21.008Z,0
2016-01-31T04:52:20.996Z,0
2016-01-31T04:53:21.014Z,0
2016-01-31T04:54:20.970Z,0
2016-01-31T04:55:20.973Z,0
2016-01-31T04:56:21.022Z,0
2016-01-31T04:57:20.964Z,0
2016-01-31T04:58:20.951Z,0
2016-01-31T04:59:20.953Z,0
2016-01-31T05:00:20.941Z,0
2016-01-31T05:01:20.945Z,0
2016-01-31T05:02:20.947Z,0
2016-01-31T05:03:20.935Z,0
2016-01-31T05:04:20.907Z,0
2016-01-31T05:05:20.909Z,0
2016-01-31T05:06:20.927Z,0
2016-01-31T05:07:20.946Z,0
2016-01-31T05:08:20.918Z,0
2016-01-31T05:09:20.920Z,0
2016-01-31T05:10:20.876Z,0
2016-01-31T05:11:20.863Z,0
2016-01-31T05:12:20.866Z,0
2016-01-31T05:13:20.885Z,0
2016-01-31T05:14:20.856Z,0
2016-01-31T05:15:20.859Z,0
2016-01-31T05:16:20.846Z,0
2016-01-31T05:17:20.864Z,0
2016-01-31T05:18:20.835Z,0
2016-01-31T05:19:20.838Z,0
2016-01-31T05:20:20.826Z,0
2016-01-31T05:21:20.830Z,0
2016-01-31T05:22:20.817Z,0
2016-01-31T05:23:20.804Z,0
2016-01-31T05:24:20.807Z,0
2016-01-31T05:25:20.826Z,0
2016-01-31T05:26:20.797Z,0
2016-01-31T05:27:20.767Z,0
2016-01-31T05:28:20.788Z,0
2016-01-31T05:29:20.790Z,0
2016-01-31T05:30:20.775Z,0
2016-01-31T05:31:20.762Z,0
2016-01-31T05:32:20.751Z,0
2016-01-31T05:33:20.786Z,0
2016-01-31T05:34:20.742Z,0
2016-01-31T05:35:20.728Z,0
2016-01-31T05:36:20.732Z,0
2016-01-31T05:37:20.736Z,0
2016-01-31T05:38:20.707Z,0
2016-01-31T05:39:20.709Z,0
2016-01-31T05:40:20.714Z,0
2016-01-31T05:41:20.685Z,0
2016-01-31T05:42:20.687Z,0
2016-01-31T05:43:20.550Z,0
2016-01-31T05:44:20.694Z,0
2016-01-31T05:45:20.696Z,0
2016-01-31T05:46:20.668Z,0
2016-01-31T05:47:20.657Z,0
2016-01-31T05:48:20.645Z,0
2016-01-31T05:49:20.648Z,0
2016-01-31T05:50:20.665Z,0
2016-01-31T05:51:20.638Z,0
2016-01-31T05:52:20.641Z,0
2016-01-31T05:53:20.643Z,0
2016-01-31T05:54:20.677Z,0
2016-01-31T05:55:20.634Z,0
2016-01-31T05:56:20.653Z,0
2016-01-31T05:57:20.624Z,0
2016-01-31T05:58:20.611Z,0
2016-01-31T05:59:20.582Z,0
2016-01-31T06:00:20.589Z,0
2016-01-31T06:01:20.575Z,0
2016-01-31T06:02:20.578Z,0
2016-01-31T06:03:20.565Z,0
2016-01-31T06:04:20.554Z,0
2016-01-31T06:05:20.557Z,0
2016-01-31T06:06:20.576Z,0
2016-01-31T06:07:20.564Z,0
2016-01-31T06:08:20.551Z,0
2016-01-31T06:09:20.522Z,0
2016-01-31T06:10:20.525Z,0
2016-01-31T06:11:20.513Z,0
2016-01-31T06:12:20.531Z,4
2016-01-31T06:13:20.488Z,4
2016-01-31T06:14:20.475Z,4
2016-01-31T06:15:20.463Z,4
2016-01-31T06:16:20.434Z,4
2016-01-31T06:17:20.407Z,4
2016-01-31T06:18:20.405Z,4
2016-01-31T06:19:20.370Z,8
2016-01-31T06:20:20.385Z,8
2016-01-31T06:21:20.398Z,8
2016-01-31T06:22:20.380Z,8
2016-01-31T06:23:20.349Z,12
2016-01-31T06:24:20.336Z,16
2016-01-31T06:25:20.337Z,20
2016-01-31T06:26:20.340Z,20
2016-01-31T06:27:20.310Z,24
2016-01-31T06:28:20.498Z,24
2016-01-31T06:29:20.360Z,32
2016-01-31T06:30:20.300Z,32
2016-01-31T06:31:20.286Z,36
2016-01-31T06:32:20.289Z,44
2016-01-31T06:33:23.307Z,52
2016-01-31T06:34:20.262Z,56
2016-01-31T06:35:20.251Z,64
2016-01-31T06:36:20.269Z,72
2016-01-31T06:37:20.256Z,80
2016-01-31T06:38:20.243Z,88
2016-01-31T06:39:20.089Z,104
2016-01-31T06:40:20.249Z,120
2016-01-31T06:41:20.252Z,136
2016-01-31T06:42:20.254Z,152
2016-01-31T06:43:20.241Z,168
2016-01-31T06:44:20.201Z,184
2016-01-31T06:45:20.203Z,208
2016-01-31T06:46:20.206Z,228
2016-01-31T06:47:20.195Z,244
2016-01-31T06:48:20.212Z,268
2016-01-31T06:49:20.168Z,292
2016-01-31T06:50:20.171Z,324
2016-01-31T06:51:20.189Z,356
2016-01-31T06:52:20.160Z,384
2016-01-31T06:53:20.147Z,404
2016-01-31T06:54:20.150Z,424
2016-01-31T06:55:20.152Z,460
2016-01-31T06:56:20.186Z,516
2016-01-31T06:57:20.127Z,564
2016-01-31T06:58:20.130Z,600
2016-01-31T06:59:20.136Z,628
2016-01-31T07:00:20.108Z,672
2016-01-31T07:01:20.111Z,700
2016-01-31T07:02:20.113Z,736
2016-01-31T07:03:19.944Z,776
2016-01-31T07:04:20.104Z,816
2016-01-31T07:05:20.090Z,864
2016-01-31T07:06:20.078Z,916
2016-01-31T07:07:20.096Z,984
2016-01-31T07:08:20.099Z,1032
2016-01-31T07:09:20.070Z,1124
2016-01-31T07:10:20.075Z,1156
2016-01-31T07:11:20.062Z,1184
2016-01-31T07:12:20.080Z,1240
2016-01-31T07:13:20.049Z,1232
2016-01-31T07:14:20.052Z,1232
2016-01-31T07:15:20.034Z,1220
2016-01-31T07:16:20.036Z,1236
2016-01-31T07:17:20.009Z,1240
2016-01-31T07:18:20.028Z,1292
2016-01-31T07:19:19.998Z,1380
2016-01-31T07:20:20.017Z,1500
2016-01-31T07:21:20.020Z,1656
2016-01-31T07:22:20.022Z,1768
2016-01-31T07:23:19.979Z,1924
2016-01-31T07:24:20.013Z,2068
2016-01-31T07:25:19.984Z,1992
2016-01-31T07:26:19.987Z,2000
2016-01-31T07:27:20.006Z,2032
2016-01-31T07:28:19.821Z,2004
2016-01-31T07:29:19.965Z,1928
2016-01-31T07:30:19.924Z,1868
2016-01-31T07:31:19.943Z,1728
2016-01-31T07:32:19.960Z,1632
2016-01-31T07:33:19.948Z,1644
2016-01-31T07:34:19.935Z,1632
2016-01-31T07:35:19.923Z,1704
2016-01-31T07:36:19.926Z,1796
2016-01-31T07:37:19.914Z,1724
2016-01-31T07:38:19.916Z,1632
2016-01-31T07:39:19.905Z,1472
2016-01-31T07:40:19.923Z,1452
2016-01-31T07:41:19.878Z,1452
2016-01-31T07:42:19.882Z,1480
2016-01-31T07:43:19.889Z,1528
2016-01-31T07:44:19.891Z,1676
2016-01-31T07:45:19.863Z,1764
2016-01-31T07:46:19.864Z,1864
2016-01-31T07:47:19.886Z,1968
2016-01-31T07:48:19.872Z,2200
2016-01-31T07:49:19.844Z,2544
2016-01-31T07:50:19.847Z,2652
2016-01-31T07:51:19.850Z,2488
2016-01-31T07:52:19.884Z,2656
2016-01-31T07:53:19.824Z,2728
2016-01-31T07:54:19.842Z,2824
2016-01-31T07:55:19.814Z,2904
2016-01-31T07:56:19.863Z,3084
2016-01-31T07:57:19.804Z,3792
2016-01-31T07:58:19.792Z,4304
2016-01-31T07:59:19.811Z,4024
2016-01-31T08:00:19.813Z,4088
2016-01-31T08:01:19.784Z,3932
2016-01-31T08:02:19.787Z,3944
2016-01-31T08:03:19.790Z,3876
2016-01-31T08:04:22.778Z,4152
2016-01-31T08:05:19.765Z,4124
2016-01-31T08:06:19.767Z,3804
2016-01-31T08:07:19.787Z,3772
2016-01-31T08:08:19.758Z,3780
2016-01-31T08:09:19.746Z,3764
2016-01-31T08:10:19.763Z,3868
2016-01-31T08:11:19.751Z,3908
2016-01-31T08:12:19.754Z,3908
2016-01-31T08:13:19.724Z,3872
2016-01-31T08:14:19.743Z,3868
2016-01-31T08:15:19.730Z,3896
2016-01-31T08:16:19.717Z,3984
2016-01-31T08:17:19.720Z,4128
2016-01-31T08:18:19.706Z,4364
2016-01-31T08:19:19.724Z,4480
2016-01-31T08:20:19.711Z,4548
2016-01-31T08:21:19.713Z,4508
2016-01-31T08:22:19.701Z,4428
2016-01-31T08:23:19.704Z,4412
2016-01-31T08:24:19.675Z,4456
2016-01-31T08:25:19.694Z,4384
2016-01-31T08:26:19.697Z,4416
2016-01-31T08:27:19.700Z,4412
2016-01-31T08:28:19.653Z,4412
2016-01-31T08:29:19.675Z,4388
2016-01-31T08:30:19.677Z,4316
2016-01-31T08:31:19.646Z,4172
2016-01-31T08:32:19.665Z,3948
2016-01-31T08:33:19.652Z,3600
2016-01-31T08:34:19.640Z,3672
2016-01-31T08:35:19.627Z,3996
2016-01-31T08:36:19.661Z,4344
2016-01-31T08:37:19.618Z,4436
2016-01-31T08:38:19.636Z,4692
2016-01-31T08:39:19.624Z,4900
2016-01-31T08:40:19.641Z,5088
2016-01-31T08:41:19.472Z,5256
2016-01-31T08:42:19.635Z,5420
2016-01-31T08:43:19.622Z,5592
2016-01-31T08:44:19.609Z,5480
2016-01-31T08:45:19.596Z,5468
2016-01-31T08:46:19.599Z,5432
2016-01-31T08:47:19.589Z,5216
2016-01-31T08:48:19.599Z,5024
2016-01-31T08:49:19.571Z,5032
2016-01-31T08:50:19.574Z,4964
2016-01-31T08:51:19.592Z,4636
2016-01-31T08:52:19.579Z,4128
2016-01-31T08:53:19.599Z,3880
2016-01-31T08:54:19.571Z,3744
2016-01-31T08:55:19.557Z,3792
2016-01-31T08:56:19.576Z,4228
2016-01-31T08:57:19.562Z,4712
2016-01-31T08:58:19.550Z,5612
2016-01-31T08:59:19.537Z,6596
2016-01-31T09:00:19.539Z,6252
2016-01-31T09:01:19.543Z,5668
2016-01-31T09:02:19.547Z,5684
2016-01-31T09:03:19.378Z,5512
2016-01-31T09:04:19.522Z,5196
2016-01-31T09:05:19.524Z,4988
2016-01-31T09:06:19.512Z,4892
2016-01-31T09:07:19.500Z,4860
2016-01-31T09:08:19.519Z,4860
2016-01-31T09:09:19.521Z,5004
2016-01-31T09:10:19.524Z,5024
2016-01-31T09:11:19.528Z,5080
2016-01-31T09:12:19.530Z,4876
2016-01-31T09:13:19.486Z,5028
2016-01-31T09:14:19.492Z,5036
2016-01-31T09:15:19.494Z,5548
2016-01-31T09:16:20.216Z,5592
2016-01-31T09:17:19.485Z,5344
2016-01-31T09:18:19.489Z,5176
2016-01-31T09:19:19.508Z,5088
2016-01-31T09:20:19.500Z,5080
2016-01-31T09:21:19.472Z,4960
2016-01-31T09:22:19.319Z,4772
2016-01-31T09:23:19.461Z,4448
2016-01-31T09:24:19.464Z,4352
2016-01-31T09:25:19.451Z,4348
2016-01-31T09:26:19.486Z,4400
2016-01-31T09:27:19.458Z,4524
2016-01-31T09:28:19.444Z,4504
2016-01-31T09:29:19.447Z,4540
2016-01-31T09:30:19.466Z,4360
2016-01-31T09:31:19.454Z,4288
2016-01-31T09:32:19.438Z,4424
2016-01-31T09:33:19.506Z,4244
2016-01-31T09:34:19.443Z,4200
2016-01-31T09:35:19.431Z,4440
2016-01-31T09:36:19.449Z,4676
2016-01-31T09:37:19.422Z,5176
2016-01-31T09:38:19.441Z,5716
2016-01-31T09:39:19.428Z,6680
2016-01-31T09:40:19.384Z,7728
2016-01-31T09:41:19.402Z,8072
2016-01-31T09:42:19.420Z,7660
2016-01-31T09:43:19.423Z,6608
2016-01-31T09:44:19.384Z,6000
2016-01-31T09:45:19.402Z,5704
2016-01-31T09:46:19.389Z,5084
2016-01-31T09:47:19.392Z,4880
2016-01-31T09:48:19.391Z,4692
2016-01-31T09:49:19.393Z,4140
2016-01-31T09:50:19.380Z,3780
2016-01-31T09:51:19.384Z,3644
2016-01-31T09:52:19.839Z,3768
2016-01-31T09:53:19.389Z,3932
2016-01-31T09:54:19.375Z,4284
2016-01-31T09:55:19.380Z,4412
2016-01-31T09:56:19.382Z,4416
2016-01-31T09:57:19.401Z,4460
2016-01-31T09:58:19.358Z,4400
2016-01-31T09:59:19.345Z,4796
2016-01-31T10:00:19.597Z,5212
2016-01-31T10:01:19.334Z,5484
2016-01-31T10:02:19.338Z,5708
2016-01-31T10:03:19.215Z,5320
2016-01-31T10:04:19.358Z,5028
2016-01-31T10:05:19.330Z,4504
2016-01-31T10:06:19.350Z,4296
2016-01-31T10:07:19.337Z,4248
2016-01-31T10:08:19.339Z,4608
2016-01-31T10:09:19.358Z,4908
2016-01-31T10:10:19.332Z,5108
2016-01-31T10:11:19.320Z,4896
2016-01-31T10:12:19.307Z,4784
2016-01-31T10:13:19.341Z,4560
2016-01-31T10:14:19.313Z,4356
2016-01-31T10:15:19.441Z,4384
2016-01-31T10:16:19.474Z,4448
2016-01-31T10:17:19.340Z,4592
2016-01-31T10:18:19.295Z,4704
2016-01-31T10:19:19.313Z,4616
2016-01-31T10:20:19.301Z,4540
2016-01-31T10:21:19.307Z,4560
2016-01-31T10:22:19.403Z,4492
2016-01-31T10:23:19.281Z,4312
2016-01-31T10:24:19.315Z,4060
2016-01-31T10:25:20.395Z,3964
2016-01-31T10:26:19.274Z,3844
2016-01-31T10:27:19.355Z,3692
2016-01-31T10:28:19.280Z,3660
2016-01-31T10:29:19.298Z,3580
2016-01-31T10:30:19.285Z,3536
2016-01-31T10:31:19.335Z,3660
2016-01-31T10:32:19.321Z,3864
2016-01-31T10:33:22.371Z,3912
2016-01-31T10:34:19.312Z,4064
2016-01-31T10:35:19.253Z,4196
2016-01-31T10:36:19.255Z,4320
2016-01-31T10:37:19.258Z,4328
2016-01-31T10:38:19.244Z,4396
2016-01-31T10:39:19.372Z,4404
2016-01-31T10:40:19.232Z,4512
2016-01-31T10:41:19.250Z,4612
2016-01-31T10:42:19.238Z,4668
2016-01-31T10:43:19.256Z,4792
2016-01-31T10:44:19.243Z,5100
2016-01-31T10:45:19.230Z,5292
2016-01-31T10:46:19.425Z,5392
2016-01-31T10:47:19.223Z,5504
2016-01-31T10:48:19.211Z,5924
2016-01-31T10:49:19.228Z,6708
2016-01-31T10:50:19.233Z,7248
2016-01-31T10:51:19.269Z,7624
2016-01-31T10:52:19.209Z,6536
2016-01-31T10:53:19.195Z,6624
2016-01-31T10:54:19.076Z,6936
2016-01-31T10:55:19.189Z,7248
2016-01-31T10:56:19.253Z,7448
2016-01-31T10:57:19.194Z,7524
2016-01-31T10:58:19.180Z,7508
2016-01-31T10:59:19.216Z,8104
2016-01-31T11:00:19.204Z,10784
2016-01-31T11:01:19.178Z,11344
2016-01-31T11:02:19.180Z,9224
2016-01-31T11:03:19.183Z,6992
2016-01-31T11:04:19.171Z,6268
2016-01-31T11:05:19.175Z,6232
2016-01-31T11:06:19.162Z,6276
2016-01-31T11:07:19.165Z,6440
2016-01-31T11:08:19.183Z,6348
2016-01-31T11:09:19.170Z,5812
2016-01-31T11:10:19.193Z,5440
2016-01-31T11:11:19.210Z,5428
2016-01-31T11:12:19.151Z,5488
2016-01-31T11:13:19.153Z,5668
2016-01-31T11:14:19.160Z,5936
2016-01-31T11:15:19.148Z,5864
2016-01-31T11:16:19.151Z,6056
2016-01-31T11:17:19.153Z,6148
2016-01-31T11:18:19.156Z,6248
2016-01-31T11:19:19.163Z,6524
2016-01-31T11:20:19.165Z,6712
2016-01-31T11:21:19.152Z,6500
2016-01-31T11:22:19.155Z,6456
2016-01-31T11:23:19.142Z,5964
2016-01-31T11:24:19.145Z,5604
2016-01-31T11:25:19.132Z,5656
2016-01-31T11:26:19.009Z,5736
2016-01-31T11:27:19.153Z,5884
2016-01-31T11:28:19.140Z,6084
2016-01-31T11:29:20.455Z,6404
2016-01-31T11:30:19.130Z,6532
2016-01-31T11:31:19.102Z,6472
2016-01-31T11:32:19.120Z,6384
2016-01-31T11:33:19.529Z,6472
2016-01-31T11:34:19.127Z,6408
2016-01-31T11:35:19.130Z,6292
2016-01-31T11:36:19.132Z,6256
2016-01-31T11:37:19.150Z,6096
2016-01-31T11:38:22.732Z,5456
2016-01-31T11:39:19.140Z,5380
2016-01-31T11:40:19.143Z,5304
2016-01-31T11:41:19.099Z,5392
2016-01-31T11:42:19.149Z,5464
2016-01-31T11:43:19.214Z,5648
2016-01-31T11:44:19.466Z,5968
2016-01-31T11:45:19.814Z,6348
2016-01-31T11:46:19.833Z,6720
2016-01-31T11:47:20.773Z,6792
2016-01-31T11:48:19.181Z,7208
2016-01-31T11:49:19.107Z,7048
2016-01-31T11:50:19.151Z,7440
2016-01-31T11:51:21.123Z,7340
2016-01-31T11:52:19.111Z,7984
2016-01-31T11:53:19.099Z,6980
2016-01-31T11:54:19.759Z,6840
2016-01-31T11:55:19.121Z,7108
2016-01-31T11:56:19.406Z,7068
2016-01-31T11:57:19.127Z,7192
2016-01-31T11:58:19.619Z,7408
2016-01-31T11:59:19.184Z,7428
2016-01-31T12:00:20.171Z,7472
2016-01-31T12:01:19.331Z,7844
2016-01-31T12:02:19.239Z,8760
2016-01-31T12:03:20.009Z,7984
2016-01-31T12:04:19.137Z,7464
2016-01-31T12:05:19.108Z,7368
2016-01-31T12:06:19.252Z,7464
2016-01-31T12:07:19.911Z,7528
2016-01-31T12:08:19.148Z,7448
2016-01-31T12:09:19.077Z,7364
2016-01-31T12:10:19.065Z,7324
2016-01-31T12:11:19.068Z,7336
2016-01-31T12:12:19.149Z,7488
2016-01-31T12:13:19.058Z,7780
2016-01-31T12:14:19.078Z,8060
2016-01-31T12:15:19.081Z,8140
2016-01-31T12:16:19.130Z,7820
2016-01-31T12:17:19.054Z,7356
2016-01-31T12:18:19.046Z,7068
2016-01-31T12:19:19.065Z,7004
2016-01-31T12:20:19.083Z,7000
2016-01-31T12:21:19.070Z,6952
2016-01-31T12:22:19.058Z,6804
2016-01-31T12:23:19.076Z,6320
2016-01-31T12:24:19.079Z,5720
2016-01-31T12:25:19.034Z,5612
2016-01-31T12:26:19.037Z,5552
2016-01-31T12:27:19.043Z,5600
2016-01-31T12:28:19.046Z,5752
2016-01-31T12:29:19.051Z,6008
2016-01-31T12:30:19.397Z,6152
2016-01-31T12:31:19.056Z,6436
2016-01-31T12:32:19.044Z,6872
2016-01-31T12:33:19.030Z,7396
2016-01-31T12:34:19.036Z,8152
2016-01-31T12:35:19.039Z,8840
2016-01-31T12:36:19.041Z,9440
2016-01-31T12:37:19.044Z,9668
2016-01-31T12:38:19.048Z,9432
2016-01-31T12:39:19.065Z,9140
2016-01-31T12:40:19.022Z,9324
2016-01-31T12:41:18.868Z,9432
2016-01-31T12:42:19.028Z,9400
2016-01-31T12:43:19.018Z,9484
2016-01-31T12:44:19.036Z,10000
2016-01-31T12:45:19.493Z,10196
2016-01-31T12:46:19.024Z,10092
2016-01-31T12:47:19.017Z,9856
2016-01-31T12:48:19.035Z,9460
2016-01-31T12:49:19.008Z,9212
2016-01-31T12:50:19.027Z,9136
2016-01-31T12:51:18.999Z,8784
2016-01-31T12:52:19.032Z,8440
2016-01-31T12:53:19.144Z,8104
2016-01-31T12:54:18.839Z,7792
2016-01-31T12:55:19.092Z,7604
2016-01-31T12:56:19.064Z,7736
2016-01-31T12:57:19.020Z,8176
2016-01-31T12:58:19.023Z,8528
2016-01-31T12:59:19.026Z,8748
2016-01-31T13:00:18.996Z,8760
2016-01-31T13:01:19.000Z,8632
2016-01-31T13:02:18.991Z,8260
2016-01-31T13:03:18.994Z,7452
2016-01-31T13:04:18.997Z,6652
2016-01-31T13:05:19.015Z,6100
2016-01-31T13:06:18.987Z,5836
2016-01-31T13:07:19.005Z,5880
2016-01-31T13:08:19.023Z,6152
2016-01-31T13:09:19.183Z,6600
2016-01-31T13:10:18.982Z,7184
2016-01-31T13:11:19.219Z,7548
2016-01-31T13:12:19.003Z,7660
2016-01-31T13:13:19.022Z,7676
2016-01-31T13:14:18.961Z,7808
2016-01-31T13:15:19.261Z,8220
2016-01-31T13:16:18.983Z,8372
2016-01-31T13:17:19.001Z,8216
2016-01-31T13:18:18.990Z,8216
2016-01-31T13:19:19.029Z,8016
2016-01-31T13:20:19.003Z,8076
2016-01-31T13:21:18.974Z,8128
2016-01-31T13:22:18.993Z,7932
2016-01-31T13:23:18.980Z,7692
2016-01-31T13:24:19.264Z,7692
2016-01-31T13:25:18.985Z,7840
2016-01-31T13:26:18.988Z,8224
2016-01-31T13:27:18.961Z,8400
2016-01-31T13:28:19.167Z,8664
2016-01-31T13:29:18.967Z,8988
2016-01-31T13:30:18.969Z,9596
2016-01-31T13:31:18.972Z,9780
2016-01-31T13:32:18.959Z,9900
2016-01-31T13:33:18.964Z,10132
2016-01-31T13:34:18.967Z,10196
2016-01-31T13:35:18.970Z,9828
2016-01-31T13:36:18.972Z,9016
2016-01-31T13:37:18.975Z,8516
2016-01-31T13:38:18.981Z,8112
2016-01-31T13:39:18.983Z,7696
2016-01-31T13:40:18.986Z,7364
2016-01-31T13:41:18.989Z,7056
2016-01-31T13:42:18.995Z,6988
2016-01-31T13:43:18.951Z,7100
2016-01-31T13:44:18.970Z,7248
2016-01-31T13:45:18.973Z,7300
2016-01-31T13:46:18.959Z,7340
2016-01-31T13:47:18.957Z,7412
2016-01-31T13:48:19.069Z,7508
2016-01-31T13:49:18.962Z,7524
2016-01-31T13:50:18.996Z,7568
2016-01-31T13:51:19.709Z,7628
2016-01-31T13:52:19.526Z,7620
2016-01-31T13:53:21.717Z,7508
2016-01-31T13:54:23.767Z,7312
2016-01-31T13:55:19.313Z,7112
2016-01-31T13:56:19.190Z,6932
2016-01-31T13:57:18.943Z,6776
2016-01-31T13:58:20.706Z,6636